Details From HEGN - Hurghada Intl
To LLBG - Tel Aviv Ben Gurion
Flight Number -
Tags Generated
Created
Modified
Stats Distance 295 nm / 546 km
Max Altitude 0 ft / 0 m
Waypoints 3
Social Downloads 2
Likes 0
Share VATSIM

Download

Looking for another format? Having issues loading an existing format? Contact us
Advertisement - Login to hide

Notes

Generated

Route

HEGN BGN21 LLBG

ID Type Via Altitude Latitude Longitude Leg Dist Tot Dist Heading (true) Name
O HEGN APT - 0 ft / 0 m 27.19576˚ 33.79425˚ - 0 nm - -
BGN21 FIX - 0 ft / 0 m 31.98806˚ 34.87523˚ 293 nm 293 nm 11° / 11° -
O LLBG APT - 0 ft / 0 m 32.00417˚ 34.89117˚ 1 nm 294 nm 40° / 40° -

Altitude Profile

Advertisement - Login to hide

Weather


0- 5 10 15 20 25 30 35+ Temperature / ° C

Clouds and Precipitation
Forecast for 2017-12-18 00:00 UTC. Updated an hour ago

Ground ~20,000 ft ~40,000 ft Winds

HEGN

Details ICAO HEGN (HRG)
Name HURGHADA INTL
Region Egypt
Timezone Africa/Cairo (UTC+2.0)
Stats Elevation 52 ft / 16 m (AMSL)
Location 27.178308° 33.799397°
Runways 1
Magnetic Variation 4.212° E

METAR

HEGN 171900Z 25003KT CAVOK 17/12 Q1019 NOSIG

Decode

TAF

Not found

Departure Runways

ID Width Length Bearing (true) Bearing (mag) Surface Threshold Offset Overrun Length
16 148 ft / 45 m 13,169 ft / 4,014 m 165.29° 161.08° Asphalt 985 ft / 300 m 0 ft / 0 m
34 148 ft / 45 m 13,169 ft / 4,014 m 345.29° 341.08° Asphalt 0 ft / 0 m 200 ft / 61 m

LLBG

Details ICAO LLBG (TLV)
Name Tel Aviv Ben Gurion
Region Israel
Timezone Asia/Jerusalem (UTC+2.0)
Stats Elevation 135 ft / 41 m (AMSL)
Location 32.011468° 34.885059°
Runways 3
Magnetic Variation 4.688° E

METAR

LLBG 171950Z 14004KT CAVOK 16/09 Q1019 NOSIG

Decode

TAF

Not found

Destination Runways

ID Width Length Bearing (true) Bearing (mag) Surface Threshold Offset Overrun Length
03 148 ft / 45 m 5,792 ft / 1,765 m 28.88° 24.19° Asphalt 0 ft / 0 m 216 ft / 66 m
08 148 ft / 45 m 12,017 ft / 3,663 m 79.72° 75.03° Asphalt 0 ft / 0 m 295 ft / 90 m
12 148 ft / 45 m 10,279 ft / 3,133 m 121.54° 116.85° Asphalt 0 ft / 0 m 328 ft / 100 m
21 148 ft / 45 m 5,792 ft / 1,765 m 208.88° 204.19° Asphalt 0 ft / 0 m 216 ft / 66 m
26 148 ft / 45 m 12,017 ft / 3,663 m 259.74° 255.05° Asphalt 1,969 ft / 600 m 205 ft / 62 m
30 148 ft / 45 m 10,279 ft / 3,133 m 301.56° 296.87° Asphalt 246 ft / 75 m 347 ft / 106 m

Approach Navaids

Runway Type Ident Frequency Range Bearing (true) Bearing (mag) Slope Elevation
12 Localiser BG 110.30 MHz 18 nm / 33 km 121.47° 116.78° - 130 ft / 40 m (AMSL)
12 Glidescope BG 110.30 MHz 10 nm / 19 km 121.55° 116.86° 3.00° 135 ft / 41 m (AMSL)
12 DME BG 110.30 MHz 18 nm / 33 km - - - 135 ft / 41 m (AMSL)
26 Localiser BA 108.70 MHz 18 nm / 33 km 259.72° 255.03° - 97 ft / 30 m (AMSL)
26 Glidescope BA 108.70 MHz 10 nm / 19 km 259.73° 255.04° 3.00° 100 ft / 30 m (AMSL)

Popular Alternatives